createdAt,value
2019-03-26T00:00:09.245Z,102928.94
2019-03-26T00:02:40.199Z,102927.56
2019-03-26T00:05:09.851Z,102932.02
2019-03-26T00:07:39.154Z,102928.22
2019-03-26T00:10:08.554Z,102927.70
2019-03-26T00:12:37.877Z,102922.52
2019-03-26T00:15:07.349Z,102925.67
2019-03-26T00:17:37.269Z,102925.84
2019-03-26T00:20:06.725Z,102923.79
2019-03-26T00:22:36.046Z,102926.67
2019-03-26T00:25:06.980Z,102933.09
2019-03-26T00:27:36.368Z,102944.17
2019-03-26T00:30:06.130Z,102932.61
2019-03-26T00:32:35.462Z,102930.82
2019-03-26T00:35:05.225Z,102932.91
2019-03-26T00:37:34.550Z,102935.45
2019-03-26T00:40:04.449Z,102936.98
2019-03-26T00:42:33.775Z,102937.63
2019-03-26T00:45:03.107Z,102931.84
2019-03-26T00:47:32.507Z,102931.46
2019-03-26T00:50:01.830Z,102938.13
2019-03-26T00:52:31.227Z,102944.50
2019-03-26T00:55:00.557Z,102945.56
2019-03-26T00:57:29.876Z,102939.28
2019-03-26T00:59:59.208Z,102938.47
2019-03-26T01:02:28.852Z,102946.69
2019-03-26T01:04:58.182Z,102941.90
2019-03-26T01:07:27.513Z,102944.98
2019-03-26T01:09:56.840Z,102940.66
2019-03-26T01:12:26.159Z,102931.47
2019-03-26T01:14:56.460Z,102939.13
2019-03-26T01:17:25.781Z,102940.73
2019-03-26T01:19:55.113Z,102940.08
2019-03-26T01:22:24.436Z,102937.58
2019-03-26T01:24:53.769Z,102946.12
2019-03-26T01:27:23.100Z,102946.94
2019-03-26T01:29:52.714Z,102948.06
2019-03-26T01:32:22.400Z,102948.31
2019-03-26T01:34:51.724Z,102952.32
2019-03-26T01:37:21.320Z,102954.11
2019-03-26T01:39:50.940Z,102945.39
2019-03-26T01:42:20.265Z,102949.85
2019-03-26T01:44:49.588Z,102953.62
2019-03-26T01:47:18.917Z,102945.94
2019-03-26T01:49:49.211Z,102946.94
2019-03-26T01:52:18.540Z,102944.32
2019-03-26T01:54:47.861Z,102943.84
2019-03-26T01:57:17.477Z,102947.98
2019-03-26T01:59:46.801Z,102947.88
2019-03-26T02:02:16.138Z,102945.27
2019-03-26T02:04:58.962Z,102946.00
2019-03-26T02:07:16.493Z,102954.25
2019-03-26T02:09:46.888Z,102946.44
2019-03-26T02:12:16.561Z,102944.61
2019-03-26T02:14:45.885Z,102951.13
2019-03-26T02:17:15.204Z,102953.02
2019-03-26T02:19:44.531Z,102952.45
2019-03-26T02:22:13.869Z,102952.55
2019-03-26T02:24:43.190Z,102954.57
2019-03-26T02:27:12.513Z,102960.77
2019-03-26T02:29:41.903Z,102952.78
2019-03-26T02:32:11.176Z,102953.98
2019-03-26T02:34:40.790Z,102954.55
2019-03-26T02:37:10.121Z,102951.06
2019-03-26T02:39:39.448Z,102952.78
2019-03-26T02:42:08.784Z,102940.15
2019-03-26T02:44:39.169Z,102942.66
2019-03-26T02:47:08.491Z,102942.17
2019-03-26T02:49:37.815Z,102943.47
2019-03-26T02:52:07.165Z,102947.86
2019-03-26T02:54:37.490Z,102949.75
2019-03-26T02:57:06.812Z,102948.05
2019-03-26T02:59:36.133Z,102948.77
2019-03-26T03:02:05.469Z,102942.66
2019-03-26T03:04:34.791Z,102937.27
2019-03-26T03:07:04.121Z,102943.95
2019-03-26T03:09:33.485Z,102943.95
2019-03-26T03:12:02.831Z,102949.64
2019-03-26T03:14:33.249Z,102943.65
2019-03-26T03:17:02.622Z,102944.70
2019-03-26T03:19:31.939Z,102937.60
2019-03-26T03:22:01.265Z,102949.97
2019-03-26T03:24:30.591Z,102954.30
2019-03-26T03:27:00.222Z,102956.09
2019-03-26T03:29:29.549Z,102947.31
2019-03-26T03:31:58.880Z,102958.75
2019-03-26T03:34:28.269Z,102955.84
2019-03-26T03:36:57.579Z,102956.14
2019-03-26T03:39:26.894Z,102955.20
2019-03-26T03:41:56.225Z,102950.47
2019-03-26T03:44:25.551Z,102949.91
2019-03-26T03:46:56.574Z,102952.00
2019-03-26T03:49:27.679Z,102952.66
2019-03-26T03:51:58.050Z,102948.50
2019-03-26T03:54:27.519Z,102948.92
2019-03-26T03:56:58.703Z,102959.28
2019-03-26T03:59:29.066Z,102964.14
2019-03-26T04:01:58.405Z,102955.37
2019-03-26T04:04:27.732Z,102962.30
2019-03-26T04:06:57.062Z,102957.98
2019-03-26T04:09:26.389Z,102967.23
2019-03-26T04:11:55.743Z,102955.68
2019-03-26T04:14:25.067Z,102956.16
2019-03-26T04:16:54.398Z,102957.57
2019-03-26T04:19:23.732Z,102945.92
2019-03-26T04:21:53.057Z,102947.39
2019-03-26T04:24:22.386Z,102956.98
2019-03-26T04:26:51.712Z,102955.27
2019-03-26T04:29:21.040Z,102961.69
2019-03-26T04:31:50.373Z,102962.92
2019-03-26T04:34:22.664Z,102958.42
2019-03-26T04:36:50.729Z,102965.02
2019-03-26T04:39:20.060Z,102965.12
2019-03-26T04:41:49.382Z,102960.05
2019-03-26T04:44:18.714Z,102956.44
2019-03-26T04:46:48.041Z,102957.40
2019-03-26T04:49:17.370Z,102948.46
2019-03-26T04:51:46.718Z,102959.73
2019-03-26T04:54:16.028Z,102966.02
2019-03-26T04:56:45.360Z,102959.47
2019-03-26T04:59:14.691Z,102958.40
2019-03-26T05:01:44.018Z,102956.45
2019-03-26T05:04:13.346Z,102956.78
2019-03-26T05:06:42.671Z,102951.32
2019-03-26T05:09:11.996Z,102947.83
2019-03-26T05:11:41.325Z,102947.16
2019-03-26T05:14:10.915Z,102948.16
2019-03-26T05:16:40.237Z,102945.27
2019-03-26T05:19:09.566Z,102943.20
2019-03-26T05:21:38.891Z,102942.56
2019-03-26T05:24:08.534Z,102941.97
2019-03-26T05:26:38.116Z,102944.45
2019-03-26T05:29:07.442Z,102955.31
2019-03-26T05:31:36.768Z,102968.00
2019-03-26T05:34:06.099Z,102960.72
2019-03-26T05:36:35.446Z,102960.50
2019-03-26T05:39:06.814Z,102963.50
2019-03-26T05:41:37.098Z,102968.64
2019-03-26T05:44:06.435Z,102961.64
2019-03-26T05:46:35.763Z,102973.92
2019-03-26T05:49:05.104Z,102975.94
2019-03-26T05:51:34.424Z,102969.06
2019-03-26T05:54:03.762Z,102969.69
2019-03-26T05:56:33.338Z,102977.91
2019-03-26T05:59:02.677Z,102968.98
2019-03-26T06:01:32.005Z,102968.79
2019-03-26T06:04:01.339Z,102972.95
2019-03-26T06:06:30.661Z,102962.86
2019-03-26T06:08:59.998Z,102972.31
2019-03-26T06:11:29.326Z,102976.27
2019-03-26T06:13:58.730Z,102970.84
2019-03-26T06:16:37.887Z,102980.20
2019-03-26T06:18:59.422Z,102982.15
2019-03-26T06:21:28.751Z,102990.22
2019-03-26T06:23:58.082Z,102994.47
2019-03-26T06:26:27.414Z,102988.02
2019-03-26T06:28:56.758Z,102988.84
2019-03-26T06:31:26.077Z,102999.01
2019-03-26T06:33:56.659Z,102999.38
2019-03-26T06:36:25.917Z,103002.69
2019-03-26T06:38:55.255Z,103007.53
2019-03-26T06:41:24.584Z,103001.98
2019-03-26T06:43:53.919Z,102996.59
2019-03-26T06:46:23.254Z,103000.91
2019-03-26T06:48:52.862Z,102992.27
2019-03-26T06:51:22.214Z,103003.40
2019-03-26T06:53:51.542Z,103008.72
2019-03-26T06:56:20.871Z,103007.08
2019-03-26T06:58:50.200Z,103003.09
2019-03-26T07:01:19.602Z,103012.75
2019-03-26T07:03:48.921Z,103011.11
2019-03-26T07:06:18.255Z,103005.27
2019-03-26T07:08:47.587Z,103011.70
2019-03-26T07:11:16.933Z,103012.30
2019-03-26T07:13:46.262Z,103009.95
2019-03-26T07:16:15.897Z,103012.25
2019-03-26T07:18:45.222Z,103016.05
2019-03-26T07:21:14.632Z,103031.69
2019-03-26T07:23:43.955Z,103036.88
2019-03-26T07:26:13.288Z,103038.96
2019-03-26T07:28:43.686Z,103044.66
2019-03-26T07:31:13.020Z,103040.20
2019-03-26T07:33:42.351Z,103049.69
2019-03-26T07:36:11.687Z,103047.94
2019-03-26T07:38:41.012Z,103049.47
2019-03-26T07:41:10.342Z,103046.42
2019-03-26T07:43:39.732Z,103034.98
2019-03-26T07:46:09.070Z,103032.82
2019-03-26T07:48:38.400Z,103037.30
2019-03-26T07:51:07.755Z,103039.08
2019-03-26T07:53:37.088Z,103037.14
2019-03-26T07:56:06.415Z,103036.17
2019-03-26T07:58:35.742Z,103037.95
2019-03-26T08:01:05.068Z,103036.81
2019-03-26T08:03:34.665Z,103036.50
2019-03-26T08:06:04.069Z,103034.44
2019-03-26T08:08:33.398Z,103035.76
2019-03-26T08:11:02.727Z,103036.27
2019-03-26T08:13:32.097Z,103039.37
2019-03-26T08:16:01.388Z,103043.00
2019-03-26T08:18:30.721Z,103039.58
2019-03-26T08:21:00.044Z,103037.86
2019-03-26T08:23:29.377Z,103034.36
2019-03-26T08:25:58.702Z,103033.95
2019-03-26T08:28:28.033Z,103037.07
2019-03-26T08:30:57.377Z,103034.87
2019-03-26T08:33:26.700Z,103036.24
2019-03-26T08:35:56.025Z,103038.03
2019-03-26T08:38:25.605Z,103032.33
2019-03-26T08:40:55.177Z,103026.69
2019-03-26T08:43:24.562Z,103033.55
2019-03-26T08:45:53.835Z,103038.94
2019-03-26T08:48:23.159Z,103039.00
2019-03-26T08:50:52.629Z,103033.36
2019-03-26T08:53:22.930Z,103033.34
2019-03-26T08:55:52.255Z,103043.27
2019-03-26T08:58:21.854Z,103035.64
2019-03-26T09:00:51.179Z,103039.72
2019-03-26T09:03:20.508Z,103038.09
2019-03-26T09:05:49.899Z,103040.73
2019-03-26T09:08:25.172Z,103044.39
2019-03-26T09:10:51.934Z,103041.48
2019-03-26T09:13:21.286Z,103034.13
2019-03-26T09:15:50.856Z,103044.52
2019-03-26T09:18:20.195Z,103032.92
2019-03-26T09:20:49.523Z,103038.12
2019-03-26T09:23:18.859Z,103042.11
2019-03-26T09:25:48.190Z,103042.91
2019-03-26T09:28:17.522Z,103045.37
2019-03-26T09:30:46.848Z,103053.56
2019-03-26T09:33:16.475Z,103052.89
2019-03-26T09:35:45.865Z,103060.23
2019-03-26T09:38:16.269Z,103058.48
2019-03-26T09:40:46.665Z,103071.06
2019-03-26T09:43:16.002Z,103067.78
2019-03-26T09:45:45.330Z,103073.81
2019-03-26T09:48:14.880Z,103075.27
2019-03-26T09:50:44.220Z,103074.80
2019-03-26T09:53:13.550Z,103071.05
2019-03-26T09:55:43.170Z,103067.72
2019-03-26T09:58:12.769Z,103073.84
2019-03-26T10:00:42.172Z,103069.09
2019-03-26T10:03:11.502Z,103064.63
2019-03-26T10:05:40.840Z,103059.95
2019-03-26T10:08:10.167Z,103051.73
2019-03-26T10:10:39.519Z,103050.31
2019-03-26T10:13:09.092Z,103051.13
2019-03-26T10:15:38.430Z,103055.19
2019-03-26T10:18:09.122Z,103048.87
2019-03-26T10:20:38.459Z,103049.92
2019-03-26T10:23:07.781Z,103045.78
2019-03-26T10:25:37.115Z,103045.38
2019-03-26T10:28:06.513Z,103046.55
2019-03-26T10:30:38.126Z,103043.16
2019-03-26T10:33:08.088Z,103033.52
2019-03-26T10:35:37.716Z,103031.89
2019-03-26T10:38:07.523Z,103033.78
2019-03-26T10:40:40.085Z,103029.89
2019-03-26T10:43:09.414Z,103028.44
2019-03-26T10:45:38.727Z,103027.22
2019-03-26T10:48:08.418Z,103031.28
2019-03-26T10:50:38.031Z,103021.55
2019-03-26T10:53:07.354Z,103020.88
2019-03-26T10:55:36.934Z,103022.60
2019-03-26T10:58:06.336Z,103020.91
2019-03-26T11:00:35.735Z,103019.42
2019-03-26T11:03:05.137Z,103015.16
2019-03-26T11:05:34.859Z,103019.08
2019-03-26T11:08:04.196Z,103017.05
2019-03-26T11:10:33.774Z,103011.66
2019-03-26T11:13:03.175Z,103005.72
2019-03-26T11:15:32.585Z,103000.05
2019-03-26T11:18:01.993Z,102993.70
2019-03-26T11:20:31.309Z,102996.16
2019-03-26T11:23:00.891Z,103002.05
2019-03-26T11:25:30.229Z,103000.15
2019-03-26T11:27:59.559Z,103004.58
2019-03-26T11:30:29.127Z,102998.36
2019-03-26T11:32:58.458Z,103005.39
2019-03-26T11:35:27.831Z,103007.45
2019-03-26T11:37:57.125Z,103004.92
2019-03-26T11:40:26.463Z,103004.70
2019-03-26T11:42:55.798Z,103003.55
2019-03-26T11:45:25.137Z,103011.19
2019-03-26T11:47:54.465Z,103013.81
2019-03-26T11:50:23.915Z,103016.96
2019-03-26T11:52:53.693Z,103016.94
2019-03-26T11:55:23.056Z,103013.23
2019-03-26T11:57:52.381Z,103016.86
2019-03-26T12:00:32.789Z,103013.70
2019-03-26T12:03:02.144Z,103013.55
2019-03-26T12:05:31.454Z,103021.84
2019-03-26T12:08:00.795Z,103019.13
2019-03-26T12:10:30.149Z,103010.80
2019-03-26T12:12:59.478Z,103013.69
2019-03-26T12:15:30.104Z,103001.55
2019-03-26T12:17:59.432Z,102994.67
2019-03-26T12:20:28.760Z,103000.06
2019-03-26T12:22:58.090Z,103001.11
2019-03-26T12:25:27.768Z,103006.25
2019-03-26T12:27:57.121Z,103006.13
2019-03-26T12:30:31.909Z,103006.70
2019-03-26T12:33:01.241Z,103009.13
2019-03-26T12:35:31.210Z,103006.81
2019-03-26T12:38:00.565Z,103002.67
2019-03-26T12:40:29.899Z,103000.28
2019-03-26T12:43:00.513Z,102999.92
2019-03-26T12:45:29.935Z,102999.52
2019-03-26T12:47:59.272Z,102999.12
2019-03-26T12:50:31.956Z,102997.78
2019-03-26T12:53:00.257Z,102996.95
2019-03-26T12:55:29.545Z,102984.39
2019-03-26T12:57:58.908Z,102991.92
2019-03-26T13:00:34.549Z,102983.98
2019-03-26T13:03:03.883Z,102980.36
2019-03-26T13:05:33.215Z,102988.00
2019-03-26T13:08:02.842Z,102986.84
2019-03-26T13:10:32.468Z,102982.52
2019-03-26T13:13:01.815Z,102976.25
2019-03-26T13:15:31.212Z,102976.66
2019-03-26T13:18:00.867Z,102974.08
2019-03-26T13:20:30.200Z,102970.22
2019-03-26T13:22:59.535Z,102968.38
2019-03-26T13:25:28.867Z,102972.78
2019-03-26T13:27:58.200Z,102963.83
2019-03-26T13:30:27.780Z,102964.39
2019-03-26T13:32:57.131Z,102969.08
2019-03-26T13:35:26.463Z,102963.63
2019-03-26T13:37:56.612Z,102964.47
2019-03-26T13:40:27.568Z,102963.16
2019-03-26T13:42:56.982Z,102968.25
2019-03-26T13:45:26.569Z,102961.91
2019-03-26T13:47:55.904Z,102959.03
2019-03-26T13:50:26.224Z,102961.16
2019-03-26T13:52:56.923Z,102957.66
2019-03-26T13:55:26.356Z,102956.55
2019-03-26T13:57:55.764Z,102955.38
2019-03-26T14:00:34.757Z,102959.70
2019-03-26T14:03:04.692Z,102965.56
2019-03-26T14:05:34.036Z,102965.98
2019-03-26T14:08:03.516Z,102965.77
2019-03-26T14:10:40.772Z,102971.00
2019-03-26T14:13:04.148Z,102960.62
2019-03-26T14:15:33.494Z,102954.77
2019-03-26T14:18:02.885Z,102956.11
2019-03-26T14:20:32.165Z,102949.66
2019-03-26T14:23:01.487Z,102951.16
2019-03-26T14:25:30.992Z,102949.64
2019-03-26T14:28:00.393Z,102954.26
2019-03-26T14:30:35.072Z,102951.09
2019-03-26T14:33:05.144Z,102950.77
2019-03-26T14:35:34.477Z,102952.75
2019-03-26T14:38:04.146Z,102947.64
2019-03-26T14:40:33.475Z,102946.20
2019-03-26T14:43:02.829Z,102948.73
2019-03-26T14:45:32.162Z,102954.17
2019-03-26T14:48:01.495Z,102951.61
2019-03-26T14:50:30.903Z,102949.36
2019-03-26T14:53:00.225Z,102952.08
2019-03-26T14:55:29.558Z,102945.34
2019-03-26T14:57:58.899Z,102947.41
2019-03-26T15:00:28.220Z,102947.88
2019-03-26T15:02:57.562Z,102943.84
2019-03-26T15:05:26.885Z,102954.00
2019-03-26T15:07:56.547Z,102947.96
2019-03-26T15:10:25.974Z,102942.22
2019-03-26T15:12:55.302Z,102948.48
2019-03-26T15:15:24.638Z,102946.56
2019-03-26T15:17:54.093Z,102945.16
2019-03-26T15:20:23.772Z,102941.73
2019-03-26T15:22:53.116Z,102936.97
2019-03-26T15:25:22.814Z,102934.91
2019-03-26T15:27:52.138Z,102935.11
2019-03-26T15:30:23.430Z,102935.89
2019-03-26T15:32:52.767Z,102935.52
2019-03-26T15:35:22.107Z,102935.98
2019-03-26T15:37:51.444Z,102933.09
2019-03-26T15:40:20.884Z,102937.48
2019-03-26T15:42:50.292Z,102934.16
2019-03-26T15:45:20.138Z,102933.09
2019-03-26T15:47:49.622Z,102932.20
2019-03-26T15:50:31.180Z,102930.05
2019-03-26T15:53:00.524Z,102934.91
2019-03-26T15:55:29.892Z,102938.47
2019-03-26T15:57:59.975Z,102932.20
2019-03-26T16:00:32.383Z,102933.77
2019-03-26T16:03:01.790Z,102930.42
2019-03-26T16:05:31.125Z,102928.97
2019-03-26T16:08:00.822Z,102931.83
2019-03-26T16:10:30.181Z,102927.38
2019-03-26T16:12:59.511Z,102926.69
2019-03-26T16:15:28.855Z,102928.13
2019-03-26T16:17:58.171Z,102924.02
2019-03-26T16:20:27.512Z,102923.41
2019-03-26T16:22:56.863Z,102923.73
2019-03-26T16:25:26.197Z,102922.02
2019-03-26T16:27:55.852Z,102919.86
2019-03-26T16:30:26.145Z,102922.98
2019-03-26T16:32:55.507Z,102922.56
2019-03-26T16:35:24.862Z,102929.12
2019-03-26T16:37:54.290Z,102924.53
2019-03-26T16:40:23.693Z,102931.13
2019-03-26T16:42:53.042Z,102922.42
2019-03-26T16:45:22.367Z,102934.06
2019-03-26T16:47:51.699Z,102938.32
2019-03-26T16:50:21.017Z,102940.89
2019-03-26T16:52:50.355Z,102937.77
2019-03-26T16:55:19.975Z,102939.91
2019-03-26T16:57:49.372Z,102936.27
2019-03-26T17:00:21.770Z,102936.03
2019-03-26T17:02:51.098Z,102939.07
2019-03-26T17:05:26.346Z,102932.05
2019-03-26T17:07:55.845Z,102935.98
2019-03-26T17:10:25.191Z,102935.52
2019-03-26T17:12:54.524Z,102931.58
2019-03-26T17:15:23.952Z,102931.50
2019-03-26T17:17:53.582Z,102934.06
2019-03-26T17:20:24.178Z,102938.31
2019-03-26T17:22:53.669Z,102937.01
2019-03-26T17:25:23.005Z,102938.41
2019-03-26T17:27:52.336Z,102931.47
2019-03-26T17:30:21.668Z,102939.52
2019-03-26T17:32:50.996Z,102941.02
2019-03-26T17:35:20.329Z,102935.92
2019-03-26T17:37:59.615Z,102927.45
2019-03-26T17:40:20.791Z,102932.22
2019-03-26T17:42:50.117Z,102935.40
2019-03-26T17:45:19.454Z,102940.62
2019-03-26T17:47:48.800Z,102936.50
2019-03-26T17:50:18.207Z,102933.39
2019-03-26T17:52:47.540Z,102930.63
2019-03-26T17:55:16.870Z,102928.37
2019-03-26T17:57:46.432Z,102932.21
2019-03-26T18:00:17.782Z,102935.32
2019-03-26T18:02:47.116Z,102937.44
2019-03-26T18:05:27.871Z,102943.19
2019-03-26T18:07:57.567Z,102938.23
2019-03-26T18:10:26.985Z,102937.94
2019-03-26T18:12:56.396Z,102945.09
2019-03-26T18:15:25.725Z,102941.05
2019-03-26T18:17:55.059Z,102949.09
2019-03-26T18:20:32.624Z,102957.56
2019-03-26T18:22:55.436Z,102956.41
2019-03-26T18:25:24.848Z,102960.59
2019-03-26T18:27:54.203Z,102950.19
2019-03-26T18:30:23.865Z,102952.75
2019-03-26T18:32:53.220Z,102959.49
2019-03-26T18:35:22.558Z,102955.84
2019-03-26T18:37:52.125Z,102954.25
2019-03-26T18:40:21.467Z,102959.76
2019-03-26T18:42:50.805Z,102957.70
2019-03-26T18:45:20.462Z,102957.08
2019-03-26T18:47:49.906Z,102961.06
2019-03-26T18:50:21.046Z,102967.07
2019-03-26T18:52:51.344Z,102971.94
2019-03-26T18:55:20.682Z,102979.05
2019-03-26T18:57:50.020Z,102981.36
2019-03-26T19:00:22.723Z,102976.70
2019-03-26T19:02:52.143Z,102970.99
2019-03-26T19:05:21.566Z,102973.84
2019-03-26T19:07:50.897Z,102976.13
2019-03-26T19:10:28.837Z,102981.36
2019-03-26T19:12:58.409Z,102986.80
2019-03-26T19:15:28.042Z,102988.43
2019-03-26T19:17:57.370Z,102991.88
2019-03-26T19:20:26.786Z,102989.42
2019-03-26T19:22:56.208Z,102983.98
2019-03-26T19:25:25.593Z,102988.43
2019-03-26T19:27:54.939Z,102988.59
2019-03-26T19:30:24.276Z,103000.36
2019-03-26T19:32:53.617Z,102995.13
2019-03-26T19:35:22.945Z,102995.69
2019-03-26T19:37:52.291Z,102997.95
2019-03-26T19:40:21.703Z,103003.08
2019-03-26T19:42:51.041Z,103011.55
2019-03-26T19:45:20.364Z,103017.57
2019-03-26T19:47:50.767Z,103015.58
2019-03-26T19:50:20.160Z,103023.88
2019-03-26T19:52:49.489Z,103020.44
2019-03-26T19:55:18.821Z,103027.03
2019-03-26T19:57:48.253Z,103036.60
2019-03-26T20:00:18.017Z,103045.06
2019-03-26T20:02:47.432Z,103045.48
2019-03-26T20:05:16.817Z,103045.70
2019-03-26T20:07:46.154Z,103045.81
2019-03-26T20:10:17.177Z,103042.88
2019-03-26T20:12:46.527Z,103039.11
2019-03-26T20:15:17.001Z,103039.17
2019-03-26T20:17:46.328Z,103038.48
2019-03-26T20:20:16.390Z,103044.92
2019-03-26T20:22:45.887Z,103047.80
2019-03-26T20:25:15.452Z,103047.05
2019-03-26T20:27:44.789Z,103041.72
2019-03-26T20:30:14.652Z,103039.84
2019-03-26T20:32:44.351Z,103039.68
2019-03-26T20:35:14.121Z,103043.13
2019-03-26T20:37:43.603Z,103039.68
2019-03-26T20:40:13.473Z,103046.69
2019-03-26T20:42:42.873Z,103041.94
2019-03-26T20:45:14.530Z,103043.60
2019-03-26T20:47:44.926Z,103039.00
2019-03-26T20:50:14.814Z,103046.21
2019-03-26T20:52:44.233Z,103041.44
2019-03-26T20:55:14.298Z,103047.41
2019-03-26T20:57:44.354Z,103043.58
2019-03-26T21:00:15.665Z,103049.03
2019-03-26T21:02:45.047Z,103044.69
2019-03-26T21:05:14.615Z,103044.17
2019-03-26T21:07:43.949Z,103049.09
2019-03-26T21:10:13.832Z,103048.65
2019-03-26T21:12:43.233Z,103051.52
2019-03-26T21:15:12.730Z,103052.47
2019-03-26T21:17:42.360Z,103054.86
2019-03-26T21:20:12.031Z,103054.96
2019-03-26T21:22:41.434Z,103062.52
2019-03-26T21:25:11.108Z,103056.87
2019-03-26T21:27:40.514Z,103049.38
2019-03-26T21:30:15.999Z,103055.59
2019-03-26T21:32:45.562Z,103052.00
2019-03-26T21:35:15.462Z,103053.50
2019-03-26T21:37:44.800Z,103057.19
2019-03-26T21:40:14.398Z,103057.19
2019-03-26T21:42:43.797Z,103059.90
2019-03-26T21:45:14.895Z,103060.16
2019-03-26T21:47:44.233Z,103062.84
2019-03-26T21:50:13.794Z,103060.07
2019-03-26T21:52:44.118Z,103063.59
2019-03-26T21:55:13.739Z,103057.79
2019-03-26T21:57:43.100Z,103063.82
2019-03-26T22:00:13.642Z,103065.45
2019-03-26T22:02:42.960Z,103069.55
2019-03-26T22:05:12.845Z,103067.16
2019-03-26T22:07:42.170Z,103065.03
2019-03-26T22:10:11.851Z,103065.95
2019-03-26T22:12:41.179Z,103066.93
2019-03-26T22:15:11.761Z,103066.34
2019-03-26T22:17:41.081Z,103063.51
2019-03-26T22:20:11.623Z,103065.62
2019-03-26T22:22:40.956Z,103065.44
2019-03-26T22:25:10.537Z,103063.23
2019-03-26T22:27:39.867Z,103057.19
2019-03-26T22:30:11.114Z,103063.48
2019-03-26T22:32:40.451Z,103058.61
2019-03-26T22:35:10.071Z,103058.36
2019-03-26T22:37:39.404Z,103062.34
2019-03-26T22:40:09.276Z,103063.84
2019-03-26T22:42:38.683Z,103058.28
2019-03-26T22:45:10.325Z,103062.39
2019-03-26T22:47:39.812Z,103054.55
2019-03-26T22:50:10.998Z,103060.60
2019-03-26T22:52:40.327Z,103063.05
2019-03-26T22:55:10.642Z,103061.66
2019-03-26T22:57:39.964Z,103065.56
2019-03-26T23:00:12.519Z,103064.11
2019-03-26T23:02:43.466Z,103056.70
2019-03-26T23:05:14.553Z,103054.88
2019-03-26T23:07:43.987Z,103057.51
2019-03-26T23:10:15.581Z,103062.59
2019-03-26T23:12:44.912Z,103061.92
2019-03-26T23:15:17.354Z,103064.37
2019-03-26T23:17:46.849Z,103058.16
2019-03-26T23:20:16.250Z,103062.67
2019-03-26T23:22:45.748Z,103057.92
2019-03-26T23:25:16.015Z,103059.97
2019-03-26T23:27:45.349Z,103058.98
2019-03-26T23:30:15.580Z,103060.22
2019-03-26T23:32:44.983Z,103052.70
2019-03-26T23:35:14.480Z,103054.58
2019-03-26T23:37:44.005Z,103058.98
2019-03-26T23:40:13.694Z,103061.59
2019-03-26T23:42:43.297Z,103066.17
2019-03-26T23:45:12.963Z,103066.41
2019-03-26T23:47:42.338Z,103069.73
2019-03-26T23:50:13.194Z,103064.53
2019-03-26T23:52:42.863Z,103070.58
2019-03-26T23:55:12.726Z,103067.80
2019-03-26T23:57:42.061Z,103062.27
